Time;durP1;ratioP1;P1;durP2;ratioP2;P2;SDS_P1;SDS_P2;PMS_P1;PMS_P2;Temp;Humidity;BMP_temperature;BMP_pressure;BME280_temperature;BME280_humidity;BME280_pressure;Samples;Min_cycle;Max_cycle;Signal;HPM_P1;HPM_P2
2021/09/10 00:00:17;;;;;;;2.88;1.63;;;;;;;20.41;74.24;100482.41;4950541;28;20049;-86
2021/09/10 00:02:43;;;;;;;4.20;2.05;;;;;;;20.42;74.69;100483.28;4924493;28;20114;-84
2021/09/10 00:05:13;;;;;;;2.05;1.95;;;;;;;20.41;74.24;100478.91;4944749;28;20042;-84
2021/09/10 00:07:40;;;;;;;2.25;1.95;;;;;;;20.41;74.86;100477.09;4944450;28;20043;-89
2021/09/10 00:10:07;;;;;;;1.85;1.75;;;;;;;20.40;74.87;100480.72;4938910;28;20050;-89
2021/09/10 00:12:37;;;;;;;2.30;2.10;;;;;;;20.38;75.55;100482.59;4920972;28;20114;-83
2021/09/10 00:15:06;;;;;;;2.10;2.00;;;;;;;20.39;75.64;100470.13;4940636;28;20055;-83
2021/09/10 00:17:35;;;;;;;2.78;2.55;;;;;;;20.40;76.34;100466.56;4947149;28;20074;-85
2021/09/10 00:20:02;;;;;;;2.80;2.60;;;;;;;20.40;75.97;100471.88;4934056;28;20387;-84
2021/09/10 00:22:29;;;;;;;2.00;1.90;;;;;;;20.40;76.73;100480.72;4941133;28;20111;-84
2021/09/10 00:24:55;;;;;;;2.85;2.63;;;;;;;20.39;77.06;100476.34;4937113;28;20039;-89
2021/09/10 00:27:22;;;;;;;3.67;2.78;;;;;;;20.38;77.52;100479.94;4936527;28;20039;-83
2021/09/10 00:29:49;;;;;;;2.90;2.58;;;;;;;20.36;78.43;100481.78;4920403;28;20058;-83
2021/09/10 00:32:21;;;;;;;3.15;2.90;;;;;;;20.35;79.67;100487.19;4933726;28;20047;-86
2021/09/10 00:34:48;;;;;;;3.05;2.85;;;;;;;20.32;78.75;100485.56;4921219;28;20047;-89
2021/09/10 00:37:28;;;;;;;5.00;3.50;;;;;;;20.27;79.26;100485.81;4920463;28;20079;-85
2021/09/10 00:39:54;;;;;;;3.20;3.00;;;;;;;20.22;79.61;100489.63;4917371;28;20047;-89
2021/09/10 00:42:21;;;;;;;3.40;3.20;;;;;;;20.16;80.01;100485.50;4930555;28;20150;-85
2021/09/10 00:44:48;;;;;;;3.63;3.00;;;;;;;20.12;80.29;100489.28;4916923;28;20038;-89
2021/09/10 00:47:15;;;;;;;5.90;3.10;;;;;;;20.06;80.59;100493.09;4932505;28;20097;-87
2021/09/10 00:49:42;;;;;;;4.15;3.38;;;;;;;20.02;81.03;100491.53;4940153;28;20763;-84
2021/09/10 00:52:09;;;;;;;3.30;3.00;;;;;;;19.97;81.54;100501.53;4942589;28;20125;-88
2021/09/10 00:54:38;;;;;;;2.33;2.22;;;;;;;19.90;81.53;100492.16;4907029;28;20059;-85
2021/09/10 00:57:07;;;;;;;2.63;2.53;;;;;;;19.85;81.54;100486.22;4934646;28;20054;-87
2021/09/10 00:59:34;;;;;;;2.63;2.42;;;;;;;19.81;81.55;100488.13;4928493;28;20055;-87
2021/09/10 01:02:01;;;;;;;3.50;3.17;;;;;;;19.78;81.77;100483.84;4931977;28;20062;-85
2021/09/10 01:04:28;;;;;;;2.10;2.00;;;;;;;19.77;81.78;100483.91;4919010;28;20066;-85
2021/09/10 01:06:56;;;;;;;2.58;2.38;;;;;;;19.74;81.97;100484.94;4943896;28;20059;-87
2021/09/10 01:09:25;;;;;;;3.72;2.40;;;;;;;19.74;82.21;100481.44;4938161;28;20532;-86
2021/09/10 01:11:52;;;;;;;2.20;2.08;;;;;;;19.73;81.96;100483.19;4956568;28;20463;-88
2021/09/10 01:14:20;;;;;;;2.70;2.50;;;;;;;19.76;82.13;100492.81;4928397;28;20464;-86
2021/09/10 01:17:07;;;;;;;3.13;2.83;;;;;;;19.77;82.85;100495.38;4957856;28;20057;-84
2021/09/10 01:19:36;;;;;;;2.95;2.67;;;;;;;19.79;82.52;100504.16;4944296;28;20050;-88
2021/09/10 01:22:06;;;;;;;2.47;2.30;;;;;;;19.80;82.48;100500.56;4920794;28;20051;-86
2021/09/10 01:24:38;;;;;;;2.95;2.75;;;;;;;19.80;82.85;100510.31;4921635;28;20051;-84
2021/09/10 01:27:07;;;;;;;3.35;2.97;;;;;;;19.80;83.89;100505.00;4918178;28;20047;-87
2021/09/10 01:29:35;;;;;;;3.28;2.67;;;;;;;19.79;83.31;100504.16;4941612;28;20086;-84
2021/09/10 01:32:04;;;;;;;4.80;3.17;;;;;;;19.79;83.23;100504.16;4941533;28;20050;-84
2021/09/10 01:34:33;;;;;;;3.22;2.80;;;;;;;19.80;83.45;100513.84;4915462;28;20097;-85
2021/09/10 01:37:00;;;;;;;2.67;2.47;;;;;;;19.80;83.71;100508.53;4955320;28;20171;-86
2021/09/10 01:39:26;;;;;;;3.80;2.58;;;;;;;19.81;83.74;100504.06;4921125;28;20055;-83
2021/09/10 01:41:53;;;;;;;2.85;2.75;;;;;;;19.81;83.60;100507.59;4938613;28;20051;-86
2021/09/10 01:44:21;;;;;;;3.97;3.03;;;;;;;19.82;84.06;100506.69;4923168;28;20061;-89
2021/09/10 01:46:48;;;;;;;4.70;2.90;;;;;;;19.83;83.95;100519.03;4938122;28;20458;-88
2021/09/10 01:49:15;;;;;;;4.25;2.95;;;;;;;19.85;84.11;100512.78;4938587;28;20066;-84
2021/09/10 01:51:42;;;;;;;3.67;3.35;;;;;;;19.83;84.35;100515.53;4922219;28;20050;-89
2021/09/10 01:54:09;;;;;;;3.22;2.65;;;;;;;19.82;84.36;100522.63;4938030;28;20091;-86
2021/09/10 01:56:36;;;;;;;4.28;3.53;;;;;;;19.81;84.67;100520.00;4924721;28;20496;-85
2021/09/10 01:59:05;;;;;;;3.53;3.22;;;;;;;19.80;84.92;100528.91;4934692;28;20039;-87
2021/09/10 02:01:33;;;;;;;2.72;2.53;;;;;;;19.80;85.09;100528.91;4925407;28;20050;-85
2021/09/10 02:04:01;;;;;;;4.88;3.50;;;;;;;19.80;85.18;100526.25;4921315;28;20477;-86
2021/09/10 02:06:28;;;;;;;3.58;3.03;;;;;;;19.79;85.55;100525.41;4936163;28;20141;-84
2021/09/10 02:08:54;;;;;;;3.90;3.60;;;;;;;19.77;86.35;100529.06;4936171;28;20039;-85
2021/09/10 02:11:23;;;;;;;4.25;3.80;;;;;;;19.73;86.78;100531.00;4922327;28;21024;-87
2021/09/10 02:13:57;;;;;;;4.00;3.55;;;;;;;19.69;87.48;100528.59;4937278;28;20057;-84
2021/09/10 02:16:25;;;;;;;7.00;3.95;;;;;;;19.64;87.83;100518.19;4930053;28;20057;-87
2021/09/10 02:18:55;;;;;;;5.10;3.45;;;;;;;19.60;88.36;100525.44;4923075;28;20070;-87
2021/09/10 02:21:22;;;;;;;5.50;4.20;;;;;;;19.58;88.71;100526.44;4923625;28;20127;-88
2021/09/10 02:23:51;;;;;;;4.07;3.53;;;;;;;19.56;89.38;100517.72;4922302;28;20059;-83
2021/09/10 02:26:21;;;;;;;4.72;4.32;;;;;;;19.54;89.39;100516.91;4929432;28;20087;-90
2021/09/10 02:28:50;;;;;;;4.75;3.78;;;;;;;19.53;89.79;100517.84;4936051;28;20140;-88
2021/09/10 02:31:20;;;;;;;5.00;4.10;;;;;;;19.53;89.87;100524.03;4940815;28;20513;-85
2021/09/10 02:33:47;;;;;;;4.78;4.40;;;;;;;19.50;90.25;100513.53;4916722;28;20051;-85
2021/09/10 02:36:13;;;;;;;5.85;4.75;;;;;;;19.49;90.65;100506.53;4939970;28;20054;-84
2021/09/10 02:38:44;;;;;;;5.82;5.20;;;;;;;19.51;90.65;100509.97;4939355;28;20039;-88
2021/09/10 02:41:11;;;;;;;4.85;4.32;;;;;;;19.54;90.84;100512.44;4936743;28;20063;-89
2021/09/10 02:43:37;;;;;;;4.90;4.50;;;;;;;19.57;90.75;100514.97;4921469;28;20122;-84
2021/09/10 02:46:04;;;;;;;5.93;5.03;;;;;;;19.60;91.15;100519.28;4925281;28;20058;-86
2021/09/10 02:48:31;;;;;;;9.25;4.50;;;;;;;19.62;90.88;100515.63;4923714;28;20067;-88
2021/09/10 02:51:01;;;;;;;5.32;4.82;;;;;;;19.64;90.94;100526.16;4946546;28;20049;-83
2021/09/10 02:53:28;;;;;;;6.13;5.30;;;;;;;19.68;90.96;100525.06;4956898;28;20077;-86
2021/09/10 02:55:56;;;;;;;6.30;4.32;;;;;;;19.72;90.96;100525.78;4941424;28;20120;-84
2021/09/10 02:58:23;;;;;;;5.43;5.03;;;;;;;19.73;90.91;100523.03;4937868;28;20046;-86
2021/09/10 03:00:49;;;;;;;7.93;5.07;;;;;;;19.75;90.86;100525.63;4927457;28;20157;-89
2021/09/10 03:03:22;;;;;;;5.00;4.50;;;;;;;19.77;91.08;100524.59;4923084;28;20114;-86
2021/09/10 03:05:49;;;;;;;5.40;4.88;;;;;;;19.80;90.92;100527.13;4938354;28;20154;-84
2021/09/10 03:08:16;;;;;;;6.78;5.13;;;;;;;19.83;91.24;100520.84;4932123;28;20051;-86
2021/09/10 03:10:42;;;;;;;6.00;5.50;;;;;;;19.85;91.17;100526.91;4916470;28;20149;-86
2021/09/10 03:13:09;;;;;;;5.93;5.20;;;;;;;19.82;91.41;100525.28;4925402;28;20493;-86
2021/09/10 03:15:35;;;;;;;8.63;6.32;;;;;;;19.82;91.81;100522.63;4934416;28;20161;-87
2021/09/10 03:18:02;;;;;;;5.90;5.30;;;;;;;19.83;91.78;100523.50;4924864;28;20113;-86
2021/09/10 03:20:29;;;;;;;5.65;5.07;;;;;;;19.85;91.47;100524.25;4944772;28;20053;-88
2021/09/10 03:22:56;;;;;;;6.80;5.45;;;;;;;19.86;91.92;100523.31;4933663;28;20312;-86
2021/09/10 03:25:23;;;;;;;5.72;5.13;;;;;;;19.88;91.96;100523.25;4929956;28;20047;-87
2021/09/10 03:27:50;;;;;;;21.95;8.35;;;;;;;19.78;96.24;100522.81;4927730;28;20043;-84
2021/09/10 03:30:28;;;;;;;6.50;5.72;;;;;;;19.39;100.00;100527.34;4936138;28;20484;-84
2021/09/10 03:32:58;;;;;;;7.93;6.97;;;;;;;19.09;100.00;100527.84;4947712;28;20867;-86
2021/09/10 03:35:25;;;;;;;10.38;7.70;;;;;;;18.88;100.00;100523.50;4948863;28;20851;-86
2021/09/10 03:37:52;;;;;;;7.22;5.97;;;;;;;18.77;100.00;100518.69;4934456;28;20303;-88
2021/09/10 03:40:42;;;;;;;8.68;7.03;;;;;;;18.70;100.00;100523.41;4931214;28;20043;-84
2021/09/10 03:43:24;;;;;;;14.18;8.50;;;;;;;18.57;100.00;100533.69;4932219;28;20046;-86
2021/09/10 03:45:51;;;;;;;10.68;8.40;;;;;;;18.46;100.00;100536.84;4930112;28;20046;-85
2021/09/10 03:48:17;;;;;;;11.90;9.52;;;;;;;18.43;100.00;100539.59;4945175;28;20056;-88
2021/09/10 03:50:45;;;;;;;11.27;7.78;;;;;;;18.41;100.00;100537.94;4942048;28;20057;-86
2021/09/10 03:53:11;;;;;;;12.82;9.32;;;;;;;18.42;100.00;100545.84;4924556;28;20144;-86
2021/09/10 03:55:38;;;;;;;9.65;8.65;;;;;;;18.44;100.00;100538.69;4952020;28;20051;-86
2021/09/10 03:58:05;;;;;;;15.40;11.30;;;;;;;18.44;100.00;100530.72;4945020;28;20039;-87
2021/09/10 04:00:35;;;;;;;15.45;9.60;;;;;;;18.47;100.00;100537.69;4949889;28;20533;-86
2021/09/10 04:03:04;;;;;;;15.63;10.63;;;;;;;18.49;100.00;100535.84;4927469;28;20065;-87
2021/09/10 04:05:37;;;;;;;19.48;11.70;;;;;;;18.50;100.00;100532.28;4916061;28;20137;-85
2021/09/10 04:08:04;;;;;;;12.85;9.93;;;;;;;18.49;100.00;100541.13;4943419;28;20130;-85
2021/09/10 04:10:34;;;;;;;15.88;9.85;;;;;;;18.49;100.00;100536.69;4932133;28;20141;-87
2021/09/10 04:13:01;;;;;;;16.80;11.77;;;;;;;18.49;100.00;100536.69;4927749;28;20523;-86
2021/09/10 04:15:28;;;;;;;14.65;10.32;;;;;;;18.50;100.00;100537.56;4933224;28;20051;-88
2021/09/10 04:17:58;;;;;;;18.15;11.60;;;;;;;18.51;100.00;100534.84;4963451;28;20058;-89
2021/09/10 04:20:25;;;;;;;16.08;10.10;;;;;;;18.52;100.00;100536.56;4911479;28;20134;-88
2021/09/10 04:22:52;;;;;;;17.30;10.23;;;;;;;18.52;100.00;100538.34;4932588;28;20050;-88
2021/09/10 04:25:23;;;;;;;12.93;9.65;;;;;;;18.50;100.00;100538.41;4938073;28;20526;-88
2021/09/10 04:27:58;;;;;;;12.57;9.82;;;;;;;18.50;100.00;100540.22;4933758;28;20540;-86
2021/09/10 04:30:49;;;;;;;14.38;9.75;;;;;;;18.46;100.00;100538.59;4978358;23;20091;-88
2021/09/10 04:33:16;;;;;;;12.60;9.68;;;;;;;18.43;100.00;100542.25;4928498;29;20047;-87
2021/09/10 04:35:46;;;;;;;10.60;9.25;;;;;;;18.42;100.00;100539.66;4919999;29;20052;-91
2021/09/10 04:38:14;;;;;;;16.05;10.65;;;;;;;18.38;100.00;100536.28;4914002;29;20059;-86
2021/09/10 04:40:41;;;;;;;14.50;11.55;;;;;;;18.37;100.00;100542.53;4904237;29;20036;-84
2021/09/10 04:43:10;;;;;;;15.30;10.48;;;;;;;18.34;100.00;100550.59;4915486;29;20043;-87
2021/09/10 04:45:39;;;;;;;10.38;9.00;;;;;;;18.31;100.00;100548.94;4918253;29;20047;-86
2021/09/10 04:48:07;;;;;;;12.98;10.23;;;;;;;18.30;100.00;100560.50;4905047;29;20055;-88
2021/09/10 04:50:42;;;;;;;12.45;10.15;;;;;;;18.29;100.00;100553.47;4918785;29;20773;-89
2021/09/10 04:53:12;;;;;;;10.30;9.25;;;;;;;18.28;100.00;100556.19;4919022;29;20067;-87
2021/09/10 04:55:38;;;;;;;16.77;11.25;;;;;;;18.28;100.00;100570.28;4913111;29;20044;-87
2021/09/10 04:58:05;;;;;;;12.93;10.38;;;;;;;18.27;100.00;100565.06;4901287;29;20269;-89
2021/09/10 05:00:32;;;;;;;13.23;10.40;;;;;;;18.27;100.00;100559.75;4911442;29;20075;-87
2021/09/10 05:03:01;;;;;;;13.80;9.77;;;;;;;18.29;100.00;100563.19;4898305;29;20071;-87
2021/09/10 05:05:29;;;;;;;11.88;10.57;;;;;;;18.28;100.00;100559.69;4911219;29;20159;-86
2021/09/10 05:07:59;;;;;;;10.15;9.10;;;;;;;18.28;100.00;100553.53;4909522;29;20120;-85
2021/09/10 05:10:37;;;;;;;9.52;8.52;;;;;;;18.29;100.00;100553.47;4878335;29;20054;-90
2021/09/10 05:13:04;;;;;;;11.35;9.40;;;;;;;18.28;100.00;100557.03;4904327;29;20060;-84
2021/09/10 05:15:31;;;;;;;10.38;8.38;;;;;;;18.30;100.00;100568.44;4909477;29;20087;-87
2021/09/10 05:18:02;;;;;;;12.50;9.02;;;;;;;18.32;100.00;100568.38;4909201;29;20047;-87
2021/09/10 05:20:51;;;;;;;12.05;8.95;;;;;;;18.32;100.00;100571.03;4890480;29;20107;-87
2021/09/10 05:23:33;;;;;;;11.50;9.55;;;;;;;18.34;100.00;100574.44;4909609;29;20055;-86
2021/09/10 05:26:00;;;;;;;14.52;10.63;;;;;;;18.34;100.00;100570.03;4925644;29;20062;-86
2021/09/10 05:28:27;;;;;;;16.42;10.63;;;;;;;18.36;100.00;100577.91;4907846;29;20042;-87
2021/09/10 05:30:55;;;;;;;11.23;9.27;;;;;;;18.39;100.00;100575.13;4903342;29;20086;-89
2021/09/10 05:33:22;;;;;;;13.93;10.85;;;;;;;18.42;100.00;100574.13;4901766;29;20119;-87
2021/09/10 05:35:54;;;;;;;12.90;9.68;;;;;;;18.44;100.00;100575.78;4889412;29;20050;-87
2021/09/10 05:38:20;;;;;;;12.82;10.02;;;;;;;18.47;100.00;100575.66;4893513;29;20968;-87
2021/09/10 05:40:50;;;;;;;12.43;9.73;;;;;;;18.49;100.00;100580.91;4897541;29;20039;-88
2021/09/10 05:43:18;;;;;;;16.02;11.10;;;;;;;18.49;100.00;100583.56;4903676;29;20387;-87
2021/09/10 05:45:51;;;;;;;14.25;11.52;;;;;;;18.48;100.00;100585.31;4926063;29;20055;-86
2021/09/10 05:48:19;;;;;;;15.07;12.00;;;;;;;18.47;100.00;100582.75;4886495;29;20421;-87
2021/09/10 05:50:50;;;;;;;13.05;11.25;;;;;;;18.45;100.00;100585.47;4903449;29;20055;-85
2021/09/10 05:53:23;;;;;;;12.07;10.60;;;;;;;18.44;100.00;100590.84;4916255;29;20454;-88
2021/09/10 05:55:50;;;;;;;9.65;8.65;;;;;;;18.43;100.00;100597.91;4900455;29;20063;-85
2021/09/10 05:58:17;;;;;;;15.77;9.52;;;;;;;18.44;100.00;100597.00;4895385;29;20525;-88
2021/09/10 06:00:43;;;;;;;12.73;9.52;;;;;;;18.46;100.00;100597.78;4888430;29;20075;-88
2021/09/10 06:03:10;;;;;;;10.48;8.95;;;;;;;18.48;100.00;100592.41;4906422;29;20641;-89
2021/09/10 06:05:40;;;;;;;11.43;7.72;;;;;;;18.50;100.00;100601.19;4903807;29;20106;-85
2021/09/10 06:08:10;;;;;;;11.07;8.95;;;;;;;18.54;100.00;100599.25;4893388;29;20047;-88
2021/09/10 06:10:37;;;;;;;9.48;8.48;;;;;;;18.55;100.00;100599.19;4928553;29;20055;-87
2021/09/10 06:13:04;;;;;;;12.18;9.43;;;;;;;18.59;100.00;100589.28;4901478;29;20288;-86
2021/09/10 06:15:33;;;;;;;14.52;11.10;;;;;;;18.63;100.00;100597.06;4893824;29;20051;-85
2021/09/10 06:18:00;;;;;;;11.32;9.65;;;;;;;18.67;100.00;100601.31;4905186;29;20134;-86
2021/09/10 06:20:26;;;;;;;11.35;10.15;;;;;;;18.72;100.00;100603.75;4909485;29;20048;-88
2021/09/10 06:23:01;;;;;;;14.95;10.55;;;;;;;18.76;100.00;100601.81;4910801;29;20048;-87
2021/09/10 06:25:34;;;;;;;12.43;9.43;;;;;;;18.78;100.00;100607.94;4916452;29;20028;-87
2021/09/10 06:28:01;;;;;;;10.10;7.63;;;;;;;18.82;100.00;100606.84;4911200;29;20071;-87
2021/09/10 06:30:27;;;;;;;10.75;6.88;;;;;;;18.83;100.00;100614.75;4921947;29;20068;-87
2021/09/10 06:32:55;;;;;;;8.57;7.70;;;;;;;18.82;100.00;100620.13;4888691;29;20056;-87
2021/09/10 06:35:23;;;;;;;10.20;8.23;;;;;;;18.84;100.00;100621.78;4910407;29;20048;-87
2021/09/10 06:37:51;;;;;;;11.18;7.72;;;;;;;18.84;100.00;100620.94;4931284;29;20048;-90
2021/09/10 06:40:18;;;;;;;12.10;7.47;;;;;;;18.84;100.00;100621.78;4913714;29;20051;-87
2021/09/10 06:42:44;;;;;;;9.77;8.75;;;;;;;18.85;100.00;100617.31;4925045;29;20044;-88
2021/09/10 06:45:13;;;;;;;11.05;8.55;;;;;;;18.87;100.00;100611.97;4910284;29;20047;-87
2021/09/10 06:47:40;;;;;;;9.23;8.02;;;;;;;18.90;100.00;100619.81;4904525;29;20479;-87
2021/09/10 06:50:09;;;;;;;8.43;7.50;;;;;;;18.96;100.00;100617.75;4891075;29;20132;-87
2021/09/10 06:52:41;;;;;;;9.02;8.13;;;;;;;19.02;100.00;100616.63;4904960;29;20059;-86
2021/09/10 06:55:10;;;;;;;21.13;9.95;;;;;;;19.10;100.00;100616.25;4893906;29;20035;-87
2021/09/10 06:57:38;;;;;;;11.25;9.25;;;;;;;19.17;100.00;100617.72;4890931;29;20050;-87
2021/09/10 07:00:07;;;;;;;10.32;8.82;;;;;;;19.27;100.00;100629.63;4903030;29;20084;-87
2021/09/10 07:02:34;;;;;;;9.88;8.35;;;;;;;19.32;100.00;100618.78;4895191;29;20161;-84
2021/09/10 07:05:01;;;;;;;9.82;7.80;;;;;;;19.36;100.00;100614.22;4882591;29;20126;-86
2021/09/10 07:07:28;;;;;;;10.88;8.63;;;;;;;19.40;100.00;100615.78;4900986;29;20162;-86
2021/09/10 07:09:55;;;;;;;8.98;8.07;;;;;;;19.44;100.00;100617.38;4891320;29;20386;-87
2021/09/10 07:12:30;;;;;;;9.70;8.02;;;;;;;19.47;100.00;100614.56;4888197;29;20058;-86
2021/09/10 07:14:58;;;;;;;8.90;7.50;;;;;;;19.50;100.00;100627.69;4885959;29;20047;-86
2021/09/10 07:17:25;;;;;;;9.02;8.15;;;;;;;19.54;100.00;100631.06;4905542;29;20578;-88
2021/09/10 07:19:52;;;;;;;8.30;7.50;;;;;;;19.58;100.00;100614.06;4891177;29;20051;-86
2021/09/10 07:22:19;;;;;;;9.50;6.70;;;;;;;19.63;100.00;100618.25;4887893;29;20422;-86
2021/09/10 07:24:45;;;;;;;8.95;7.65;;;;;;;19.71;100.00;100624.97;4878317;29;20048;-87
2021/09/10 07:27:13;;;;;;;8.85;7.95;;;;;;;19.77;100.00;100620.22;4897296;29;20054;-88
2021/09/10 07:29:39;;;;;;;8.10;7.22;;;;;;;19.81;100.00;100627.13;4878048;29;20052;-87
2021/09/10 07:32:10;;;;;;;9.13;8.20;;;;;;;19.90;100.00;100630.31;4909957;29;20178;-87
2021/09/10 07:34:44;;;;;;;8.70;7.65;;;;;;;19.98;100.00;100636.94;4926979;29;20051;-88
2021/09/10 07:37:12;;;;;;;8.23;7.45;;;;;;;20.05;100.00;100631.34;4879730;29;20182;-86
2021/09/10 07:39:38;;;;;;;8.07;7.13;;;;;;;20.13;100.00;100634.50;4883766;29;20040;-88
2021/09/10 07:42:06;;;;;;;16.10;7.50;;;;;;;20.22;100.00;100639.34;4893713;29;20084;-87
2021/09/10 07:44:32;;;;;;;8.45;6.22;;;;;;;20.32;99.73;100645.94;4925353;29;20059;-85
2021/09/10 07:46:59;;;;;;;9.30;7.20;;;;;;;20.48;99.00;100645.16;4898597;29;20047;-86
2021/09/10 07:49:27;;;;;;;6.47;5.88;;;;;;;20.65;98.36;100644.31;4892956;29;20039;-87
2021/09/10 07:51:53;;;;;;;10.43;7.65;;;;;;;20.88;97.74;100645.78;4890280;29;20111;-88
2021/09/10 07:54:20;;;;;;;8.07;7.18;;;;;;;21.07;96.53;100653.66;4898207;29;20043;-87
2021/09/10 07:56:47;;;;;;;10.77;7.50;;;;;;;21.25;95.98;100658.94;4904040;29;20514;-88
2021/09/10 07:59:14;;;;;;;6.68;5.85;;;;;;;21.44;95.06;100656.16;4885975;29;20051;-88
2021/09/10 08:01:41;;;;;;;15.35;7.88;;;;;;;21.65;93.62;100662.13;4883605;29;20083;-87
2021/09/10 08:04:08;;;;;;;8.50;7.57;;;;;;;21.74;90.30;100664.28;4904426;29;20618;-87
2021/09/10 08:06:37;;;;;;;10.02;8.32;;;;;;;21.76;92.34;100667.72;4906117;29;20035;-86
2021/09/10 08:09:05;;;;;;;8.77;7.63;;;;;;;21.77;91.49;100666.78;4890592;29;20055;-83
2021/09/10 08:11:34;;;;;;;7.47;6.40;;;;;;;21.78;91.07;100667.66;4904585;29;20052;-89
2021/09/10 08:14:07;;;;;;;10.30;7.28;;;;;;;21.70;90.28;100662.75;4897881;29;20294;-87
2021/09/10 08:16:35;;;;;;;7.70;7.00;;;;;;;21.60;91.14;100670.41;4885513;29;20047;-87
2021/09/10 08:19:01;;;;;;;8.60;7.07;;;;;;;21.59;91.36;100675.78;4878092;29;20131;-88
2021/09/10 08:21:28;;;;;;;6.13;5.63;;;;;;;21.59;91.16;100681.09;4897611;29;20264;-87
2021/09/10 08:23:55;;;;;;;10.50;7.05;;;;;;;21.60;91.14;100681.06;4894305;29;20048;-88
2021/09/10 08:26:22;;;;;;;9.50;7.00;;;;;;;21.62;91.36;100679.16;4903502;29;20513;-88
2021/09/10 08:28:49;;;;;;;8.07;6.30;;;;;;;21.70;91.37;100680.53;4903546;29;20704;-87
2021/09/10 08:31:17;;;;;;;10.43;7.22;;;;;;;21.74;89.37;100688.25;4900716;29;20052;-85
2021/09/10 08:33:44;;;;;;;7.72;6.80;;;;;;;21.70;89.03;100692.03;4888312;29;20167;-88
2021/09/10 08:36:11;;;;;;;11.63;7.63;;;;;;;21.71;88.57;100692.94;4912985;28;20062;-85
2021/09/10 08:38:39;;;;;;;11.75;7.78;;;;;;;21.76;89.15;100688.19;4897925;29;20055;-86
2021/09/10 08:41:13;;;;;;;7.00;6.40;;;;;;;21.95;88.46;100691.56;4903962;29;20080;-85
2021/09/10 08:43:48;;;;;;;9.55;7.00;;;;;;;22.11;87.42;100693.34;4897243;29;20075;-87
2021/09/10 08:46:16;;;;;;;6.43;5.75;;;;;;;22.49;87.11;100709.00;4888247;29;20458;-85
2021/09/10 08:48:49;;;;;;;6.93;6.22;;;;;;;23.03;83.75;100699.59;4882529;29;20075;-87
2021/09/10 08:51:19;;;;;;;7.40;6.70;;;;;;;23.43;81.36;100698.03;4875146;29;20058;-87
2021/09/10 08:53:47;;;;;;;8.07;6.15;;;;;;;23.61;80.95;100701.38;4920325;29;20212;-88
2021/09/10 08:56:15;;;;;;;5.97;5.35;;;;;;;23.75;80.49;100703.19;4900538;29;20051;-86
2021/09/10 08:58:42;;;;;;;7.75;6.50;;;;;;;23.94;79.15;100704.69;4905627;29;20043;-86
2021/09/10 09:01:09;;;;;;;10.73;7.13;;;;;;;24.03;77.69;100704.09;4880387;29;20048;-88
2021/09/10 09:03:35;;;;;;;7.43;6.13;;;;;;;24.10;77.44;100704.56;4881777;29;20130;-88
2021/09/10 09:06:04;;;;;;;8.38;7.57;;;;;;;24.55;75.89;100710.50;4897514;29;20046;-88
2021/09/10 09:08:31;;;;;;;6.38;5.57;;;;;;;25.16;73.73;100698.41;4876432;29;20118;-85
2021/09/10 09:11:00;;;;;;;8.45;6.45;;;;;;;25.81;70.58;100704.56;4899125;29;20051;-86
2021/09/10 09:13:36;;;;;;;5.68;4.95;;;;;;;26.38;67.94;100709.31;4890465;29;20047;-87
2021/09/10 09:16:29;;;;;;;7.15;6.40;;;;;;;26.83;64.24;100706.00;4913670;28;20285;-85
2021/09/10 09:19:04;;;;;;;5.88;5.38;;;;;;;27.00;64.33;100706.50;4895598;29;20644;-86
2021/09/10 09:21:39;;;;;;;5.43;4.97;;;;;;;27.16;63.05;100706.19;4900208;29;20044;-86
2021/09/10 09:24:16;;;;;;;9.73;6.88;;;;;;;27.47;59.56;100701.94;4912854;29;20054;-87
2021/09/10 09:26:45;;;;;;;7.30;6.60;;;;;;;27.20;61.44;100708.50;4900286;29;20641;-87
2021/09/10 09:29:15;;;;;;;7.40;6.38;;;;;;;26.87;62.07;100709.28;4902831;29;20491;-86
2021/09/10 09:31:43;;;;;;;8.02;6.57;;;;;;;26.67;62.83;100708.09;4907276;29;20055;-88
2021/09/10 09:34:10;;;;;;;9.45;6.60;;;;;;;26.43;63.16;100717.03;4886684;29;20032;-86
2021/09/10 09:36:55;;;;;;;6.93;6.25;;;;;;;26.15;62.93;100713.75;4894709;29;20052;-86
2021/09/10 09:39:22;;;;;;;7.95;6.53;;;;;;;26.09;64.40;100709.66;4898431;29;20063;-88
2021/09/10 09:41:49;;;;;;;12.02;7.53;;;;;;;25.97;64.81;100709.66;4886202;29;20058;-87
2021/09/10 09:44:17;;;;;;;8.70;7.80;;;;;;;25.95;64.46;100711.63;4894640;28;20066;-86
2021/09/10 09:47:02;;;;;;;9.13;8.02;;;;;;;25.85;64.59;100708.75;4896302;29;20620;-86
2021/09/10 09:49:31;;;;;;;7.72;6.93;;;;;;;25.74;65.40;100729.13;4887082;29;20040;-84
2021/09/10 09:52:13;;;;;;;;;;;;;;;;;;;;;
2021/09/10 09:54:40;;;;;;;8.70;7.55;;;;;;;25.62;65.26;100719.31;4902896;29;20056;-84
2021/09/10 09:57:07;;;;;;;12.73;8.45;;;;;;;25.68;65.22;100721.56;4906630;29;20110;-87
2021/09/10 09:59:34;;;;;;;11.25;8.52;;;;;;;25.83;63.89;100716.91;4906677;29;20039;-86
2021/09/10 10:02:13;;;;;;;7.35;6.68;;;;;;;26.15;63.23;100720.91;4898626;29;20051;-90
2021/09/10 10:04:39;;;;;;;9.70;8.70;;;;;;;26.64;61.95;100722.59;4894993;29;20066;-87
2021/09/10 10:07:09;;;;;;;9.82;8.43;;;;;;;27.84;58.55;100717.78;4874395;29;20071;-85
2021/09/10 10:09:38;;;;;;;9.30;8.43;;;;;;;29.24;54.30;100711.63;4880443;29;20125;-86
2021/09/10 10:12:07;;;;;;;9.23;7.90;;;;;;;30.35;49.74;100708.03;4899844;29;20040;-86
2021/09/10 10:14:39;;;;;;;9.88;8.52;;;;;;;30.74;48.70;100704.50;4909861;29;20042;-86
2021/09/10 10:17:27;;;;;;;9.13;7.32;;;;;;;30.99;49.07;100708.41;4896612;29;20035;-86
2021/09/10 10:19:54;;;;;;;9.52;8.68;;;;;;;30.87;48.95;100701.47;4897004;29;20035;-84
2021/09/10 10:22:40;;;;;;;8.15;7.35;;;;;;;30.45;49.45;100702.59;4907276;29;20114;-87
2021/09/10 10:25:10;;;;;;;8.65;7.95;;;;;;;30.32;48.53;100707.44;4901358;29;20117;-86
2021/09/10 10:27:46;;;;;;;9.48;8.55;;;;;;;30.55;48.31;100705.34;4891362;29;20089;-88
2021/09/10 10:30:20;;;;;;;8.68;7.88;;;;;;;30.80;48.13;100698.50;4900855;29;20039;-86
2021/09/10 10:32:52;;;;;;;;;;;;;;;31.04;48.06;100699.00;4899050;29;20151;-86
2021/09/10 10:35:31;;;;;;;8.45;7.25;;;;;;;31.02;46.79;100696.47;4885537;29;19933;-86
2021/09/10 10:38:14;;;;;;;6.97;6.38;;;;;;;30.14;48.82;100701.88;4865695;29;20425;-87
2021/09/10 10:40:47;;;;;;;9.73;7.72;;;;;;;30.82;47.80;100696.50;4897842;29;20043;-85
2021/09/10 10:43:20;;;;;;;7.97;7.15;;;;;;;31.64;45.70;100694.16;4901012;29;20238;-85
2021/09/10 10:45:47;;;;;;;11.43;9.20;;;;;;;31.56;45.61;100688.59;4914987;29;20443;-89
2021/09/10 10:48:32;;;;;;;7.90;7.20;;;;;;;32.09;42.68;100686.19;4902374;29;20410;-88
2021/09/10 10:51:20;;;;;;;8.38;7.57;;;;;;;32.63;40.55;100688.88;4917837;29;20047;-85
2021/09/10 10:53:49;;;;;;;8.35;7.53;;;;;;;32.13;42.77;100684.88;4918029;29;20048;-87
2021/09/10 10:56:25;;;;;;;8.52;7.57;;;;;;;31.76;43.75;100691.22;4894744;29;21221;-87
2021/09/10 10:59:14;;;;;;;7.00;6.38;;;;;;;32.18;42.35;100688.00;4918458;29;20055;-86
2021/09/10 11:02:15;;;;;;;7.88;7.15;;;;;;;33.09;39.98;100676.00;4913155;29;20177;-88
2021/09/10 11:04:47;;;;;;;7.32;6.75;;;;;;;33.46;39.44;100688.44;4924641;29;20059;-90
2021/09/10 11:07:15;;;;;;;7.65;7.05;;;;;;;34.16;39.30;100681.03;4902714;29;20043;-86
2021/09/10 11:09:42;;;;;;;9.02;8.10;;;;;;;34.14;38.94;100691.19;4921824;29;20079;-88
2021/09/10 11:12:09;;;;;;;8.98;8.07;;;;;;;34.35;38.55;100692.63;4901154;29;20059;-87
2021/09/10 11:14:37;;;;;;;10.00;7.78;;;;;;;35.35;37.05;100684.19;4892269;29;20489;-87
2021/09/10 11:17:12;;;;;;;7.38;6.88;;;;;;;36.18;35.29;100683.75;4898262;29;20114;-85
2021/09/10 11:19:39;;;;;;;9.40;8.50;;;;;;;36.75;34.32;100675.13;4916758;29;20051;-87
2021/09/10 11:22:06;;;;;;;7.38;6.78;;;;;;;37.29;33.42;100675.94;4883774;29;20463;-88
2021/09/10 11:24:33;;;;;;;7.93;7.28;;;;;;;37.12;32.71;100678.00;4881668;29;20064;-88
2021/09/10 11:27:00;;;;;;;7.80;7.20;;;;;;;35.84;34.91;100677.66;4882869;29;20510;-87
2021/09/10 11:29:38;;;;;;;9.18;7.38;;;;;;;34.70;36.68;100672.38;4885638;29;20059;-88